createdAt,value
2022-10-01T00:02:17.396Z,15.10
2022-10-01T00:07:19.477Z,15.32
2022-10-01T00:12:21.548Z,12.45
2022-10-01T00:17:24.397Z,13.75
2022-10-01T00:22:26.417Z,12.75
2022-10-01T00:27:29.214Z,14.43
2022-10-01T00:32:34.734Z,14.00
2022-10-01T00:37:37.890Z,15.23
2022-10-01T00:42:39.951Z,16.50
2022-10-01T00:47:56.067Z,15.65
2022-10-01T00:53:01.469Z,14.63
2022-10-01T00:58:09.043Z,13.73
2022-10-01T01:03:12.811Z,17.17
2022-10-01T01:08:15.838Z,17.52
2022-10-01T01:13:20.769Z,18.63
2022-10-01T01:18:30.707Z,20.10
2022-10-01T01:23:54.561Z,17.40
2022-10-01T01:29:04.681Z,18.58
2022-10-01T01:34:12.510Z,15.55
2022-10-01T01:39:17.230Z,16.58
2022-10-01T01:44:25.967Z,16.05
2022-10-01T01:49:29.951Z,16.23
2022-10-01T01:54:34.658Z,17.77
2022-10-01T01:59:37.005Z,18.13
2022-10-01T02:04:49.107Z,17.75
2022-10-01T02:10:20.485Z,20.70
2022-10-01T02:15:44.302Z,21.70
2022-10-01T02:20:50.688Z,27.23
2022-10-01T02:25:59.851Z,22.63
2022-10-01T02:31:02.560Z,23.33
2022-10-01T02:36:08.098Z,24.83
2022-10-01T02:41:13.468Z,21.90
2022-10-01T02:46:22.049Z,21.40
2022-10-01T02:51:42.085Z,20.33
2022-10-01T02:57:02.786Z,16.58
2022-10-01T03:02:04.897Z,15.02
2022-10-01T03:07:07.162Z,15.13
2022-10-01T03:12:10.694Z,13.23
2022-10-01T03:17:13.778Z,16.40
2022-10-01T03:22:22.729Z,15.10
2022-10-01T03:27:24.988Z,13.75
2022-10-01T03:32:27.032Z,14.98
2022-10-01T03:37:29.059Z,16.90
2022-10-01T03:42:31.407Z,12.38
2022-10-01T03:47:33.730Z,13.82
2022-10-01T03:52:35.779Z,15.25
2022-10-01T03:57:37.817Z,13.23
2022-10-01T04:07:42.696Z,13.05
2022-10-01T04:12:44.748Z,12.00
2022-10-01T04:17:46.871Z,13.13
2022-10-01T04:22:49.122Z,13.13
2022-10-01T04:27:59.939Z,10.65
2022-10-01T04:33:02.772Z,9.55
2022-10-01T04:38:13.182Z,11.23
2022-10-01T04:43:15.154Z,13.32
2022-10-01T04:48:17.490Z,14.82
2022-10-01T04:53:19.583Z,13.48
2022-10-01T04:58:21.601Z,14.27
2022-10-01T05:08:25.682Z,16.88
2022-10-01T05:13:30.328Z,14.50
2022-10-01T05:18:32.624Z,12.27
2022-10-01T05:23:34.859Z,12.35
2022-10-01T05:28:37.176Z,14.98
2022-10-01T05:33:39.488Z,16.15
2022-10-01T05:38:42.448Z,19.80
2022-10-01T05:43:44.654Z,28.30
2022-10-01T05:48:51.345Z,18.63
2022-10-01T05:53:59.165Z,21.95
2022-10-01T05:59:01.195Z,17.38
2022-10-01T06:09:05.569Z,24.17
2022-10-01T06:14:07.875Z,59.05
2022-10-01T06:19:10.036Z,66.82
2022-10-01T06:24:12.229Z,181.52
2022-10-01T06:29:14.445Z,70.05
2022-10-01T06:34:16.578Z,46.17
2022-10-01T06:39:18.662Z,56.25
2022-10-01T06:44:20.804Z,102.25
2022-10-01T06:49:22.884Z,105.78
2022-10-01T06:59:29.536Z,64.78
2022-10-01T07:04:31.664Z,51.58
2022-10-01T07:09:33.753Z,81.63
2022-10-01T07:14:35.880Z,90.75
2022-10-01T07:19:37.983Z,60.92
2022-10-01T07:24:40.166Z,55.25
2022-10-01T07:29:42.412Z,57.92
2022-10-01T07:34:44.791Z,50.15
2022-10-01T07:39:46.916Z,51.47
2022-10-01T07:44:48.966Z,52.20
2022-10-01T07:49:51.044Z,54.67
2022-10-01T07:54:53.147Z,53.42
2022-10-01T07:59:56.184Z,54.92
2022-10-01T08:05:16.972Z,50.40
2022-10-01T08:10:20.299Z,52.65
2022-10-01T08:15:22.554Z,52.88
2022-10-01T08:20:24.626Z,48.75
2022-10-01T08:25:26.860Z,53.17
2022-10-01T08:30:29.747Z,53.08
2022-10-01T08:35:32.069Z,47.42
2022-10-01T08:40:36.931Z,47.50
2022-10-01T08:45:51.154Z,50.97
2022-10-01T08:51:10.465Z,53.47
2022-10-01T08:56:39.409Z,55.22
2022-10-01T09:01:41.488Z,51.45
2022-10-01T09:06:49.134Z,56.33
2022-10-01T09:12:18.415Z,55.25
2022-10-01T09:17:37.403Z,52.72
2022-10-01T09:23:15.423Z,55.45
2022-10-01T09:28:23.415Z,58.03
2022-10-01T09:33:32.322Z,57.97
2022-10-01T09:38:38.871Z,60.60
2022-10-01T09:43:43.931Z,60.95
2022-10-01T09:49:00.714Z,57.50
2022-10-01T09:54:31.598Z,57.22
2022-10-01T09:59:40.793Z,57.17
2022-10-01T10:04:42.871Z,53.85
2022-10-01T10:09:45.628Z,51.58
2022-10-01T10:14:47.752Z,55.13
2022-10-01T10:19:52.383Z,56.13
2022-10-01T10:24:58.450Z,63.05
2022-10-01T10:30:05.421Z,57.22
2022-10-01T10:35:14.537Z,56.70
2022-10-01T10:40:20.321Z,58.97
2022-10-01T10:45:36.671Z,54.30
2022-10-01T10:50:41.226Z,54.15
2022-10-01T10:56:00.342Z,56.30
2022-10-01T11:01:20.300Z,52.88
2022-10-01T11:06:22.848Z,132.40
2022-10-01T11:11:37.400Z,44.38
2022-10-01T11:16:54.357Z,45.45
2022-10-01T11:22:02.391Z,43.70
2022-10-01T11:27:22.886Z,51.45
2022-10-01T11:32:36.695Z,39.92
2022-10-01T11:37:48.813Z,47.38
2022-10-01T11:42:55.631Z,39.63
2022-10-01T11:48:12.899Z,37.90
2022-10-01T11:53:25.026Z,36.83
2022-10-01T11:58:52.879Z,42.53
2022-10-01T12:04:00.752Z,39.33
2022-10-01T12:09:10.687Z,44.13
2022-10-01T12:14:31.646Z,37.83
2022-10-01T12:19:39.098Z,31.65
2022-10-01T12:24:43.651Z,40.88
2022-10-01T12:30:10.242Z,30.95
2022-10-01T12:35:35.839Z,37.05
2022-10-01T12:40:51.109Z,32.85
2022-10-01T12:46:16.704Z,27.42
2022-10-01T12:51:36.387Z,33.70
2022-10-01T12:56:45.459Z,28.50
2022-10-01T13:01:56.992Z,34.20
2022-10-01T13:07:12.303Z,30.90
2022-10-01T13:12:49.579Z,30.35
2022-10-01T13:18:06.552Z,27.38
2022-10-01T13:23:18.652Z,19.88
2022-10-01T13:28:32.473Z,23.10
2022-10-01T13:33:36.485Z,21.52
2022-10-01T13:38:38.829Z,20.40
2022-10-01T13:43:59.231Z,21.33
2022-10-01T13:49:20.947Z,21.52
2022-10-01T13:54:33.267Z,18.23
2022-10-01T13:59:37.293Z,16.00
2022-10-01T14:04:43.820Z,16.60
2022-10-01T14:09:50.284Z,14.68
2022-10-01T14:15:32.896Z,17.05
2022-10-01T14:20:54.423Z,15.73
2022-10-01T14:26:35.341Z,14.07
2022-10-01T14:31:55.811Z,14.95
2022-10-01T14:36:58.476Z,11.15
2022-10-01T14:42:16.433Z,11.63
2022-10-01T14:47:24.377Z,12.75
2022-10-01T14:52:30.082Z,11.95
2022-10-01T14:57:39.078Z,12.38
2022-10-01T15:03:14.369Z,13.57
2022-10-01T15:08:21.119Z,12.25
2022-10-01T15:13:35.786Z,11.55
2022-10-01T15:18:38.656Z,11.30
2022-10-01T15:23:41.577Z,12.13
2022-10-01T15:28:44.573Z,17.30
2022-10-01T15:33:47.312Z,19.38
2022-10-01T15:38:50.993Z,17.27
2022-10-01T15:43:53.754Z,16.10
2022-10-01T15:49:15.959Z,15.40
2022-10-01T15:59:20.947Z,20.00
2022-10-01T16:04:23.237Z,32.63
2022-10-01T16:09:31.219Z,30.50
2022-10-01T16:14:47.668Z,25.88
2022-10-01T16:19:56.817Z,26.15
2022-10-01T16:25:02.173Z,32.03
2022-10-01T16:30:19.026Z,28.30
2022-10-01T16:35:23.367Z,28.40
2022-10-01T16:40:28.593Z,26.98
2022-10-01T16:45:36.629Z,31.38
2022-10-01T16:50:38.999Z,35.17
2022-10-01T16:55:41.628Z,31.50
2022-10-01T17:00:44.342Z,32.70
2022-10-01T17:05:47.541Z,35.47
2022-10-01T17:11:00.033Z,37.95
2022-10-01T17:16:04.723Z,33.28
2022-10-01T17:21:09.498Z,34.92
2022-10-01T17:26:11.800Z,35.03
2022-10-01T17:31:18.168Z,33.10
2022-10-01T17:36:20.673Z,58.03
2022-10-01T17:41:23.283Z,29.83
2022-10-01T17:46:25.496Z,27.95
2022-10-01T17:51:28.523Z,42.65
2022-10-01T17:56:32.986Z,32.20
2022-10-01T18:01:35.958Z,28.23
2022-10-01T18:06:39.614Z,24.40
2022-10-01T18:11:41.937Z,27.45
2022-10-01T18:16:44.464Z,27.25
2022-10-01T18:21:47.573Z,31.25
2022-10-01T18:26:50.239Z,30.40
2022-10-01T18:31:56.376Z,27.48
2022-10-01T18:37:40.078Z,31.58
2022-10-01T18:42:47.015Z,26.67
2022-10-01T18:48:08.073Z,32.90
2022-10-01T18:53:38.299Z,29.65
2022-10-01T18:59:11.001Z,34.72
2022-10-01T19:04:28.130Z,37.22
2022-10-01T19:09:37.778Z,46.65
2022-10-01T19:15:06.006Z,51.70
2022-10-01T19:20:15.783Z,43.65
2022-10-01T19:25:57.653Z,45.83
2022-10-01T19:31:13.612Z,25.83
2022-10-01T19:36:41.693Z,26.33
2022-10-01T19:42:01.792Z,20.27
2022-10-01T19:47:52.249Z,20.45
2022-10-01T19:52:58.264Z,24.48
2022-10-01T19:58:02.032Z,21.67
2022-10-01T20:03:09.871Z,19.75
2022-10-01T20:08:16.404Z,20.30
2022-10-01T20:13:24.362Z,16.02
2022-10-01T20:18:43.015Z,20.45
2022-10-01T20:24:03.301Z,19.38
2022-10-01T20:29:23.848Z,14.32
2022-10-01T20:35:06.521Z,12.75
2022-10-01T20:40:25.119Z,14.20
2022-10-01T20:45:30.051Z,17.88
2022-10-01T20:50:38.585Z,13.05
2022-10-01T20:55:47.725Z,10.07
2022-10-01T21:00:56.180Z,14.25
2022-10-01T21:06:05.094Z,10.38
2022-10-01T21:11:24.932Z,10.38
2022-10-01T21:16:46.225Z,8.75
2022-10-01T21:22:25.964Z,9.43
2022-10-01T21:28:01.547Z,8.65
2022-10-01T21:33:09.694Z,9.13
2022-10-01T21:38:19.076Z,9.63
2022-10-01T21:43:24.144Z,10.23
2022-10-01T21:48:47.400Z,9.75
2022-10-01T21:53:57.608Z,10.35
2022-10-01T21:59:29.921Z,13.25
2022-10-01T22:04:47.860Z,11.75
2022-10-01T22:09:59.784Z,10.13
2022-10-01T22:15:03.450Z,12.52
2022-10-01T22:20:08.087Z,10.95
2022-10-01T22:25:10.507Z,10.90
2022-10-01T22:30:22.587Z,9.60
2022-10-01T22:36:11.243Z,9.77
2022-10-01T22:41:23.804Z,9.95
2022-10-01T22:46:49.044Z,8.63
2022-10-01T22:52:16.948Z,6.93
2022-10-01T22:57:21.782Z,6.15
2022-10-01T23:02:39.755Z,9.75
2022-10-01T23:07:41.694Z,5.35
2022-10-01T23:18:09.857Z,4.10
2022-10-01T23:23:23.738Z,5.68
2022-10-01T23:29:01.275Z,4.88
2022-10-01T23:34:21.643Z,6.10
2022-10-01T23:39:49.015Z,4.95
2022-10-01T23:44:57.641Z,3.65
2022-10-01T23:50:02.122Z,5.93
2022-10-01T23:55:34.908Z,4.00
